Time;durP1;ratioP1;P1;durP2;ratioP2;P2;SDS_P1;SDS_P2;PMS_P1;PMS_P2;Temp;Humidity;BMP_temperature;BMP_pressure;BME280_temperature;BME280_humidity;BME280_pressure;Samples;Min_cycle;Max_cycle;Signal;HPM_P1;HPM_P2
2022/11/21 00:00:18;;;;;;;13.95;8.75;;;4.20;99.90;;;;;;5115883;28;20023;-76
2022/11/21 00:02:44;;;;;;;14.88;9.30;;;4.20;99.90;;;;;;5116193;28;20573;-71
2022/11/21 00:05:10;;;;;;;17.30;9.32;;;4.20;99.90;;;;;;5116187;28;20028;-71
2022/11/21 00:07:35;;;;;;;15.48;9.38;;;4.20;99.90;;;;;;5114331;28;20114;-73
2022/11/21 00:10:01;;;;;;;18.05;9.95;;;4.10;99.90;;;;;;5115581;28;20429;-71
2022/11/21 00:12:26;;;;;;;17.38;8.82;;;4.10;99.90;;;;;;5115358;28;20070;-71
2022/11/21 00:14:52;;;;;;;16.52;8.98;;;4.10;99.90;;;;;;5116114;28;20036;-72
2022/11/21 00:17:18;;;;;;;16.88;9.68;;;4.10;99.90;;;;;;5115276;28;20032;-72
2022/11/21 00:19:43;;;;;;;17.83;9.50;;;4.10;99.90;;;;;;5114714;28;20383;-72
2022/11/21 00:22:09;;;;;;;16.73;9.63;;;4.10;99.90;;;;;;5114876;28;20069;-72
2022/11/21 00:24:35;;;;;;;14.93;9.10;;;4.10;99.90;;;;;;5115205;28;20028;-72
2022/11/21 00:27:01;;;;;;;14.25;8.60;;;4.10;99.90;;;;;;5115589;28;20093;-72
2022/11/21 00:29:27;;;;;;;14.77;7.78;;;4.10;99.90;;;;;;5114892;28;20027;-72
2022/11/21 00:31:53;;;;;;;13.38;7.85;;;4.10;99.90;;;;;;5115469;28;20357;-72
2022/11/21 00:34:19;;;;;;;15.20;8.88;;;4.10;99.90;;;;;;5115377;28;20139;-72
2022/11/21 00:36:44;;;;;;;14.20;8.07;;;4.20;99.90;;;;;;5115058;28;20528;-72
2022/11/21 00:39:10;;;;;;;14.88;8.45;;;4.20;99.90;;;;;;5115508;28;20062;-72
2022/11/21 00:41:36;;;;;;;13.57;8.27;;;4.20;99.90;;;;;;5114565;28;20031;-72
2022/11/21 00:44:01;;;;;;;14.75;8.43;;;4.20;99.90;;;;;;5114964;28;20470;-73
2022/11/21 00:46:27;;;;;;;12.13;6.65;;;4.20;99.90;;;;;;5115068;28;20031;-72
2022/11/21 00:48:52;;;;;;;11.38;7.00;;;4.20;99.90;;;;;;5115269;28;20031;-71
2022/11/21 00:51:18;;;;;;;9.10;5.63;;;4.20;99.90;;;;;;5114063;28;20479;-72
2022/11/21 00:53:44;;;;;;;13.18;7.00;;;4.20;99.90;;;;;;5114860;28;20024;-72
2022/11/21 00:56:09;;;;;;;10.32;6.95;;;4.20;99.90;;;;;;5115339;28;20024;-72
2022/11/21 00:58:35;;;;;;;10.00;6.88;;;4.20;99.90;;;;;;5114664;28;20024;-73
2022/11/21 01:01:06;;;;;;;12.07;7.85;;;4.20;99.90;;;;;;5115549;28;20098;-72
2022/11/21 01:03:33;;;;;;;12.88;7.65;;;4.20;99.90;;;;;;5114487;28;20035;-72
2022/11/21 01:06:04;;;;;;;18.58;8.35;;;4.20;99.90;;;;;;5115007;28;20043;-72
2022/11/21 01:08:30;;;;;;;18.05;8.85;;;4.20;99.90;;;;;;5114416;28;20040;-73
2022/11/21 01:11:00;;;;;;;13.20;7.78;;;4.20;99.90;;;;;;5115339;28;20027;-72
2022/11/21 01:13:26;;;;;;;16.83;8.90;;;4.20;99.90;;;;;;5114812;28;20097;-72
2022/11/21 01:15:51;;;;;;;17.45;9.15;;;4.20;99.90;;;;;;5114665;28;20061;-72
2022/11/21 01:18:17;;;;;;;17.83;9.25;;;4.20;99.90;;;;;;5114961;28;20020;-72
2022/11/21 01:20:43;;;;;;;17.67;9.27;;;4.20;99.90;;;;;;5114379;28;20076;-71
2022/11/21 01:23:08;;;;;;;18.17;9.10;;;4.20;99.90;;;;;;5114642;27;20107;-72
2022/11/21 01:25:35;;;;;;;17.67;9.40;;;4.10;99.90;;;;;;5113784;28;20024;-72
2022/11/21 01:28:00;;;;;;;16.88;9.82;;;4.10;99.90;;;;;;5114296;28;20047;-72
2022/11/21 01:30:26;;;;;;;19.35;10.52;;;4.10;99.90;;;;;;5113781;28;20024;-70
2022/11/21 01:32:51;;;;;;;15.07;9.43;;;4.10;99.90;;;;;;5114069;28;20042;-72
2022/11/21 01:35:17;;;;;;;16.77;9.43;;;4.10;99.90;;;;;;5114320;28;20047;-72
2022/11/21 01:37:47;;;;;;;17.00;9.25;;;4.00;99.90;;;;;;5113858;28;20024;-71
2022/11/21 01:40:13;;;;;;;17.48;10.15;;;4.00;99.90;;;;;;5114130;28;20034;-71
2022/11/21 01:42:52;;;;;;;18.50;10.43;;;4.00;99.90;;;;;;5113605;28;20023;-72
2022/11/21 01:46:06;;;;;;;17.38;9.40;;;4.00;99.90;;;;;;5114393;28;20032;-71
2022/11/21 01:49:08;;;;;;;20.85;10.23;;;4.00;99.90;;;;;;5099952;27;20050;-73
2022/11/21 01:51:45;;;;;;;15.32;8.98;;;4.00;99.90;;;;;;5108121;28;20451;-72
2022/11/21 01:54:25;;;;;;;12.98;7.65;;;4.00;99.90;;;;;;5113079;28;20030;-72
2022/11/21 01:57:08;;;;;;;13.77;7.95;;;4.00;99.90;;;;;;5113305;28;20497;-70
2022/11/21 01:59:37;;;;;;;14.30;8.32;;;4.00;99.90;;;;;;5113492;28;20023;-72
2022/11/21 02:02:06;;;;;;;14.32;8.90;;;4.00;99.90;;;;;;5113896;28;20019;-71
2022/11/21 02:04:34;;;;;;;16.30;9.65;;;4.00;99.90;;;;;;5113077;28;20027;-72
2022/11/21 02:07:05;;;;;;;13.23;7.90;;;4.00;99.90;;;;;;5113287;28;20027;-72
2022/11/21 02:09:33;;;;;;;13.52;8.52;;;4.00;99.90;;;;;;5113089;28;20028;-71
2022/11/21 02:12:04;;;;;;;15.40;9.18;;;4.00;99.90;;;;;;5113676;28;20110;-72
2022/11/21 02:14:31;;;;;;;16.02;9.38;;;4.00;99.90;;;;;;5113394;28;20016;-72
2022/11/21 02:17:00;;;;;;;13.38;7.93;;;4.00;99.90;;;;;;5113487;28;20035;-72
2022/11/21 02:19:37;;;;;;;15.20;8.13;;;4.00;99.90;;;;;;5113528;28;20026;-72
2022/11/21 02:22:17;;;;;;;13.70;8.60;;;4.00;99.90;;;;;;5112334;28;20027;-72
2022/11/21 02:24:55;;;;;;;14.90;8.93;;;4.00;99.90;;;;;;5112799;28;20077;-71
2022/11/21 02:27:21;;;;;;;13.88;9.07;;;4.00;99.90;;;;;;5113444;28;20023;-71
2022/11/21 02:29:47;;;;;;;15.25;8.65;;;4.00;99.90;;;;;;5112661;28;20027;-72
2022/11/21 02:32:20;;;;;;;13.93;8.43;;;4.00;99.90;;;;;;5113240;28;20038;-73
2022/11/21 02:34:46;;;;;;;16.98;8.35;;;4.00;99.90;;;;;;5112644;28;20058;-73
2022/11/21 02:37:13;;;;;;;17.50;8.80;;;3.90;99.90;;;;;;5113262;28;20477;-72
2022/11/21 02:39:39;;;;;;;15.43;9.30;;;3.90;99.90;;;;;;5112805;28;20103;-73
2022/11/21 02:42:08;;;;;;;14.43;9.10;;;3.90;99.90;;;;;;5113192;28;20028;-72
2022/11/21 02:45:14;;;;;;;14.95;8.98;;;3.90;99.90;;;;;;5111829;28;20020;-73
2022/11/21 02:47:42;;;;;;;13.93;8.60;;;3.90;99.90;;;;;;5049638;28;20041;-73
2022/11/21 02:50:14;;;;;;;20.58;9.50;;;3.80;99.90;;;;;;5100326;28;20047;-71
2022/11/21 02:52:40;;;;;;;14.35;8.25;;;3.80;99.90;;;;;;5112741;28;20483;-71
2022/11/21 02:55:07;;;;;;;15.68;7.90;;;3.80;99.90;;;;;;5112851;28;20024;-71
2022/11/21 02:57:33;;;;;;;15.45;8.35;;;3.80;99.90;;;;;;5112222;28;20031;-76
2022/11/21 02:59:59;;;;;;;10.23;6.80;;;3.80;99.90;;;;;;5112813;28;20024;-71
2022/11/21 03:02:25;;;;;;;12.10;7.30;;;3.80;99.90;;;;;;5112808;28;20024;-72
2022/11/21 03:04:50;;;;;;;14.95;7.93;;;3.90;99.90;;;;;;5110939;28;20050;-71
2022/11/21 03:07:16;;;;;;;12.77;7.72;;;3.90;99.90;;;;;;5112192;28;20031;-72
2022/11/21 03:09:42;;;;;;;11.60;6.90;;;4.00;99.90;;;;;;5112387;28;20459;-73
2022/11/21 03:12:08;;;;;;;9.65;6.32;;;3.90;99.90;;;;;;5113077;28;20396;-72
2022/11/21 03:14:35;;;;;;;11.27;6.32;;;4.00;99.90;;;;;;5112368;28;20034;-73
2022/11/21 03:17:01;;;;;;;10.88;6.80;;;4.00;99.90;;;;;;5112745;28;20031;-73
2022/11/21 03:19:26;;;;;;;13.52;7.03;;;4.00;99.90;;;;;;5112278;28;20027;-72
2022/11/21 03:21:52;;;;;;;10.38;6.05;;;4.00;99.90;;;;;;5112343;28;20506;-72
2022/11/21 03:24:18;;;;;;;13.82;6.28;;;4.00;99.90;;;;;;5112457;28;20055;-72
2022/11/21 03:26:43;;;;;;;11.95;6.07;;;4.00;99.90;;;;;;5112081;28;20027;-73
2022/11/21 03:29:09;;;;;;;10.23;6.25;;;4.00;99.90;;;;;;5112520;28;20020;-72
2022/11/21 03:31:35;;;;;;;9.60;5.22;;;4.00;99.90;;;;;;5112282;28;20024;-73
2022/11/21 03:34:00;;;;;;;8.48;5.20;;;4.00;99.90;;;;;;5112423;28;20367;-73
2022/11/21 03:36:26;;;;;;;8.48;5.40;;;4.10;99.90;;;;;;5112594;28;20023;-73
2022/11/21 03:38:55;;;;;;;9.10;5.45;;;4.10;99.90;;;;;;5112093;28;20468;-73
2022/11/21 03:41:29;;;;;;;8.50;5.35;;;4.10;99.90;;;;;;5112473;28;20027;-72
2022/11/21 03:44:04;;;;;;;8.50;4.68;;;4.20;99.90;;;;;;5112157;28;20032;-72
2022/11/21 03:46:31;;;;;;;6.32;4.50;;;4.20;99.90;;;;;;5112420;28;20038;-72
2022/11/21 03:48:57;;;;;;;7.22;3.90;;;4.20;99.90;;;;;;5111816;28;20367;-72
2022/11/21 03:51:23;;;;;;;8.25;4.47;;;4.20;99.90;;;;;;5112081;28;20027;-72
2022/11/21 03:53:49;;;;;;;6.72;3.90;;;4.30;99.90;;;;;;5111657;28;20410;-72
2022/11/21 03:56:16;;;;;;;6.93;4.22;;;4.30;99.90;;;;;;5115174;28;20068;-72
2022/11/21 03:58:42;;;;;;;7.68;4.80;;;4.30;99.90;;;;;;5115639;28;20027;-72
2022/11/21 04:01:08;;;;;;;7.85;4.45;;;4.30;99.90;;;;;;5116077;28;20023;-71
2022/11/21 04:03:34;;;;;;;6.00;4.22;;;4.30;99.90;;;;;;5115782;28;20037;-72
2022/11/21 04:06:00;;;;;;;8.02;4.88;;;4.40;99.90;;;;;;5115443;28;20032;-71
2022/11/21 04:08:26;;;;;;;9.23;5.50;;;4.40;99.90;;;;;;5114623;28;20031;-72
2022/11/21 04:10:53;;;;;;;10.75;6.15;;;4.40;99.90;;;;;;5115524;28;20456;-72
2022/11/21 04:13:19;;;;;;;11.07;5.38;;;4.40;99.90;;;;;;5115840;28;20026;-72
2022/11/21 04:15:45;;;;;;;12.80;7.53;;;4.40;99.90;;;;;;5115488;28;20024;-72
2022/11/21 04:18:11;;;;;;;13.20;7.88;;;4.40;99.90;;;;;;5115404;28;20030;-71
2022/11/21 04:20:56;;;;;;;13.50;7.60;;;4.40;99.90;;;;;;5115787;28;20069;-72
2022/11/21 04:23:22;;;;;;;14.43;8.85;;;4.40;99.90;;;;;;5115770;28;20512;-72
2022/11/21 04:25:48;;;;;;;15.25;9.10;;;4.40;99.90;;;;;;5115469;28;20157;-73
2022/11/21 04:28:13;;;;;;;16.48;9.68;;;4.30;99.90;;;;;;5115595;28;20027;-72
2022/11/21 04:30:39;;;;;;;17.63;9.52;;;4.30;99.90;;;;;;5115056;28;20068;-73
2022/11/21 04:33:05;;;;;;;17.08;9.52;;;4.30;99.90;;;;;;5115457;28;20051;-72
2022/11/21 04:35:31;;;;;;;14.30;7.80;;;4.30;99.90;;;;;;5115359;28;20059;-72
2022/11/21 04:37:57;;;;;;;10.77;5.78;;;4.30;99.90;;;;;;5115223;28;20023;-72
2022/11/21 04:40:22;;;;;;;8.50;4.70;;;4.30;99.90;;;;;;5115262;28;20063;-72
2022/11/21 04:42:48;;;;;;;8.13;4.18;;;4.30;99.90;;;;;;5114839;28;20082;-73
2022/11/21 04:45:15;;;;;;;6.50;3.92;;;4.40;99.90;;;;;;5115215;28;20140;-72
2022/11/21 04:47:43;;;;;;;5.00;2.63;;;4.40;99.90;;;;;;5114354;28;20452;-72
2022/11/21 04:50:10;;;;;;;3.70;2.45;;;4.50;99.90;;;;;;5114850;28;20426;-71
2022/11/21 04:52:36;;;;;;;3.72;2.20;;;4.60;99.90;;;;;;5115175;28;20049;-71
2022/11/21 04:55:03;;;;;;;3.28;2.00;;;4.70;99.90;;;;;;5114642;28;20024;-71
2022/11/21 04:57:30;;;;;;;3.40;1.70;;;4.80;99.90;;;;;;5114678;28;20066;-71
2022/11/21 04:59:56;;;;;;;4.28;1.90;;;4.90;99.90;;;;;;5114026;28;20027;-71
2022/11/21 05:02:22;;;;;;;2.30;1.80;;;4.90;99.90;;;;;;5114954;28;20114;-71
2022/11/21 05:04:47;;;;;;;3.38;2.00;;;5.00;99.90;;;;;;5114706;28;20059;-71
2022/11/21 05:07:13;;;;;;;3.03;1.92;;;5.10;99.90;;;;;;5114147;28;20053;-71
2022/11/21 05:09:39;;;;;;;2.15;1.60;;;5.10;99.90;;;;;;5114794;28;20379;-71
2022/11/21 05:14:49;;;;;;;2.28;1.60;;;5.30;99.90;;;;;;5114256;28;20038;-71
2022/11/21 05:17:15;;;;;;;2.45;1.48;;;5.40;99.90;;;;;;5114183;28;20392;-71
2022/11/21 05:19:41;;;;;;;2.65;1.60;;;5.40;99.90;;;;;;5114692;28;20047;-71
2022/11/21 05:22:07;;;;;;;4.15;1.60;;;5.40;99.90;;;;;;5114133;28;20066;-71
2022/11/21 05:24:32;;;;;;;2.45;1.80;;;5.40;99.90;;;;;;5114161;28;20024;-71
2022/11/21 05:26:58;;;;;;;3.70;1.85;;;5.50;99.90;;;;;;5113672;28;20103;-71
2022/11/21 05:29:24;;;;;;;2.25;1.48;;;5.50;99.90;;;;;;5114406;28;20038;-72
2022/11/21 05:31:49;;;;;;;2.38;1.35;;;5.60;99.90;;;;;;5113466;28;20065;-72
2022/11/21 05:34:15;;;;;;;2.00;1.80;;;5.60;99.90;;;;;;5114321;28;20101;-72
2022/11/21 05:36:40;;;;;;;2.80;1.83;;;5.60;99.90;;;;;;5113992;28;20488;-72
2022/11/21 05:39:06;;;;;;;2.90;1.67;;;5.70;99.90;;;;;;5113577;28;20022;-72
2022/11/21 05:41:32;;;;;;;2.00;1.60;;;5.60;99.90;;;;;;5113918;28;20027;-72
2022/11/21 05:43:57;;;;;;;1.48;1.30;;;5.70;99.90;;;;;;5113610;28;20031;-72
2022/11/21 05:46:24;;;;;;;3.55;1.48;;;5.70;99.90;;;;;;5113818;28;20024;-72
2022/11/21 05:48:52;;;;;;;2.78;1.60;;;5.70;99.90;;;;;;5113564;28;20127;-71
2022/11/21 05:51:18;;;;;;;3.70;1.70;;;5.80;99.90;;;;;;5113529;28;20024;-72
2022/11/21 05:53:45;;;;;;;3.63;1.75;;;5.80;99.90;;;;;;5113834;28;20024;-72
2022/11/21 05:56:14;;;;;;;3.72;1.95;;;5.80;99.90;;;;;;5113462;28;20508;-72
2022/11/21 05:58:40;;;;;;;3.15;2.10;;;5.80;99.90;;;;;;5113094;28;20015;-72
2022/11/21 06:01:07;;;;;;;3.17;2.30;;;5.80;99.90;;;;;;5113503;28;20123;-72
2022/11/21 06:03:35;;;;;;;3.45;2.00;;;5.80;99.90;;;;;;5113609;28;20112;-72
2022/11/21 06:06:13;;;;;;;4.43;1.92;;;5.70;99.90;;;;;;5113181;28;20120;-71
2022/11/21 06:08:44;;;;;;;4.05;2.20;;;5.80;99.90;;;;;;5113730;28;20020;-71
2022/11/21 06:11:12;;;;;;;7.15;2.03;;;5.80;99.90;;;;;;5113709;28;20091;-72
2022/11/21 06:13:38;;;;;;;2.92;2.00;;;5.70;99.90;;;;;;5113539;28;20470;-72
2022/11/21 06:16:11;;;;;;;3.53;2.20;;;5.80;99.90;;;;;;5112739;28;20483;-72
2022/11/21 06:18:40;;;;;;;5.82;2.42;;;5.70;99.90;;;;;;5112807;28;20027;-72
2022/11/21 06:21:08;;;;;;;4.65;2.33;;;5.70;99.90;;;;;;5112837;28;20504;-72
2022/11/21 06:23:35;;;;;;;6.30;2.58;;;5.70;99.90;;;;;;5113087;28;20453;-72
2022/11/21 06:26:03;;;;;;;8.70;2.78;;;5.70;99.90;;;;;;5112610;28;20070;-71
2022/11/21 06:28:35;;;;;;;5.22;2.70;;;5.70;99.90;;;;;;5113150;28;20057;-71
2022/11/21 06:31:04;;;;;;;4.47;2.72;;;5.60;99.90;;;;;;5112715;28;20059;-71
2022/11/21 06:33:30;;;;;;;5.70;2.75;;;5.60;99.90;;;;;;5112927;28;20030;-72
2022/11/21 06:35:56;;;;;;;3.85;2.80;;;5.60;99.90;;;;;;5112773;28;20055;-73
2022/11/21 06:38:22;;;;;;;5.75;3.28;;;5.60;99.90;;;;;;5112572;28;20114;-71
2022/11/21 06:40:47;;;;;;;8.77;4.85;;;5.60;99.90;;;;;;5112435;28;20034;-77
2022/11/21 06:43:13;;;;;;;9.23;4.03;;;5.60;99.90;;;;;;5112728;28;20023;-72
2022/11/21 06:45:39;;;;;;;5.88;3.72;;;5.60;99.90;;;;;;5112699;28;20024;-71
2022/11/21 06:48:04;;;;;;;6.60;3.28;;;5.60;99.90;;;;;;5112420;28;20119;-72
2022/11/21 06:50:30;;;;;;;5.28;2.67;;;5.60;99.90;;;;;;5112363;28;20358;-71
2022/11/21 06:52:57;;;;;;;5.20;2.70;;;5.60;99.90;;;;;;5111604;28;20027;-72
2022/11/21 06:55:24;;;;;;;5.20;2.55;;;5.60;99.90;;;;;;5112857;28;20065;-72
2022/11/21 06:57:49;;;;;;;7.70;2.85;;;5.60;99.90;;;;;;5112235;28;20032;-74
2022/11/21 07:00:16;;;;;;;5.22;2.75;;;5.60;99.90;;;;;;5112399;28;20024;-71
2022/11/21 07:02:41;;;;;;;6.40;2.03;;;5.60;99.90;;;;;;5112612;28;20215;-71
2022/11/21 07:05:07;;;;;;;9.60;2.78;;;5.60;99.90;;;;;;5112213;28;20064;-71
2022/11/21 07:07:33;;;;;;;9.55;2.40;;;5.60;99.90;;;;;;5112431;28;20027;-72
2022/11/21 07:09:58;;;;;;;6.63;2.80;;;5.60;99.90;;;;;;5112250;28;20028;-71
2022/11/21 07:15:09;;;;;;;5.50;2.38;;;5.50;99.90;;;;;;5112346;28;20066;-71
2022/11/21 07:17:35;;;;;;;4.03;2.58;;;5.60;99.90;;;;;;5112590;28;20031;-71
2022/11/21 07:20:00;;;;;;;8.32;3.10;;;5.60;99.90;;;;;;5112098;28;20104;-72
2022/11/21 07:22:26;;;;;;;7.47;4.45;;;5.60;99.90;;;;;;5112433;28;20521;-71
2022/11/21 07:24:51;;;;;;;4.43;2.80;;;5.60;99.90;;;;;;5112180;28;20028;-77
2022/11/21 07:27:17;;;;;;;6.35;2.95;;;5.60;99.90;;;;;;5112258;28;20031;-72
2022/11/21 07:29:43;;;;;;;6.25;2.80;;;5.70;99.90;;;;;;5113304;28;20456;-72
2022/11/21 07:32:08;;;;;;;4.60;2.78;;;5.70;99.90;;;;;;5116208;28;20429;-72
2022/11/21 07:34:34;;;;;;;4.93;2.80;;;5.60;99.90;;;;;;5116401;28;20456;-72
2022/11/21 07:37:00;;;;;;;8.45;2.90;;;5.70;99.90;;;;;;5115898;28;20032;-73
2022/11/21 07:39:25;;;;;;;4.75;2.67;;;5.70;99.90;;;;;;5116445;28;20448;-72
2022/11/21 07:41:51;;;;;;;4.75;3.15;;;5.70;99.90;;;;;;5116480;28;20101;-72
2022/11/21 07:44:17;;;;;;;7.40;3.67;;;5.70;99.90;;;;;;5116354;28;20069;-73
2022/11/21 07:46:42;;;;;;;9.40;3.05;;;5.70;99.90;;;;;;5114877;28;20027;-72
2022/11/21 07:49:08;;;;;;;7.50;3.47;;;5.80;99.90;;;;;;5116004;28;20473;-73
2022/11/21 07:51:33;;;;;;;8.48;3.28;;;5.90;99.90;;;;;;5115814;28;20110;-72
2022/11/21 07:53:59;;;;;;;9.40;2.90;;;5.90;99.90;;;;;;5115782;28;20026;-73
2022/11/21 07:56:25;;;;;;;11.73;3.03;;;5.90;99.90;;;;;;5116085;28;20118;-72
2022/11/21 07:58:52;;;;;;;7.88;3.10;;;5.90;99.90;;;;;;5115968;28;20456;-72
2022/11/21 08:01:17;;;;;;;5.82;3.17;;;5.90;99.90;;;;;;5115633;28;20460;-72
2022/11/21 08:03:43;;;;;;;4.57;2.47;;;6.00;99.90;;;;;;5116059;28;20030;-73
2022/11/21 08:06:11;;;;;;;5.00;2.55;;;6.00;99.90;;;;;;5115130;28;20543;-73
2022/11/21 08:08:36;;;;;;;4.75;2.65;;;6.00;99.90;;;;;;5115929;28;20110;-72
2022/11/21 08:11:06;;;;;;;4.28;2.00;;;6.10;99.90;;;;;;5115480;28;20173;-72
2022/11/21 08:13:32;;;;;;;5.82;2.58;;;6.20;99.90;;;;;;5115664;28;20035;-72
2022/11/21 08:15:58;;;;;;;3.97;2.40;;;6.20;99.90;;;;;;5115432;28;20028;-71
2022/11/21 08:18:24;;;;;;;5.13;2.20;;;6.20;99.90;;;;;;5115296;28;20080;-71
2022/11/21 08:20:49;;;;;;;5.15;2.40;;;6.30;99.90;;;;;;5115495;28;20019;-72
2022/11/21 08:23:16;;;;;;;3.90;2.45;;;6.40;99.90;;;;;;5115114;28;20027;-72
2022/11/21 08:25:42;;;;;;;5.88;2.72;;;6.40;99.90;;;;;;5097319;28;20032;-71
2022/11/21 08:28:09;;;;;;;9.77;3.00;;;6.50;99.90;;;;;;5115113;28;20111;-72
2022/11/21 08:30:36;;;;;;;8.85;3.15;;;6.60;99.90;;;;;;5114014;28;20034;-71
2022/11/21 08:33:02;;;;;;;6.82;2.70;;;6.60;99.90;;;;;;5114777;28;20077;-72
2022/11/21 08:35:28;;;;;;;6.38;2.95;;;6.70;99.90;;;;;;5115244;28;20459;-71
2022/11/21 08:37:56;;;;;;;4.25;2.17;;;6.80;99.90;;;;;;5113959;28;20031;-72
2022/11/21 08:40:22;;;;;;;3.58;2.15;;;6.80;99.90;;;;;;5114794;28;20023;-73
2022/11/21 08:42:54;;;;;;;3.92;2.17;;;6.90;99.90;;;;;;5114038;28;20016;-72
2022/11/21 08:45:20;;;;;;;4.80;2.28;;;7.00;99.90;;;;;;5114447;28;20348;-73
2022/11/21 08:47:45;;;;;;;3.88;1.80;;;7.00;99.90;;;;;;5114986;28;20027;-73
2022/11/21 08:50:11;;;;;;;2.35;1.52;;;7.10;99.90;;;;;;5114503;28;20111;-73
2022/11/21 08:52:36;;;;;;;6.72;2.08;;;7.20;99.90;;;;;;5114459;28;20027;-72
2022/11/21 08:55:02;;;;;;;4.93;1.98;;;7.20;99.90;;;;;;5114446;28;20027;-71
2022/11/21 08:57:30;;;;;;;5.90;2.20;;;7.30;99.90;;;;;;5114801;28;20036;-72
2022/11/21 08:59:55;;;;;;;7.30;2.35;;;7.30;99.90;;;;;;5114866;28;20024;-72
2022/11/21 09:02:21;;;;;;;5.18;2.40;;;7.30;99.90;;;;;;5114113;28;20031;-72
2022/11/21 09:04:47;;;;;;;7.20;2.67;;;7.40;99.90;;;;;;5114722;28;20327;-72
2022/11/21 09:07:12;;;;;;;6.28;2.33;;;7.40;99.90;;;;;;5114258;28;20032;-72
2022/11/21 09:09:38;;;;;;;10.45;2.60;;;7.40;99.90;;;;;;5114791;28;20355;-72
2022/11/21 09:12:04;;;;;;;6.47;2.42;;;7.40;99.90;;;;;;5112602;28;20198;-72
2022/11/21 09:20:18;;;;;;;5.15;2.33;;;7.50;99.90;;;;;;5070950;28;20044;-72
2022/11/21 09:22:43;;;;;;;6.32;2.40;;;7.50;99.90;;;;;;5087645;28;20036;-71
2022/11/21 09:25:09;;;;;;;9.55;3.63;;;7.50;99.90;;;;;;5113986;28;20027;-71
2022/11/21 09:27:34;;;;;;;5.47;2.33;;;7.50;99.90;;;;;;5114278;28;20040;-72
2022/11/21 09:30:00;;;;;;;16.65;3.00;;;7.60;99.90;;;;;;5114173;28;20039;-77
2022/11/21 09:32:26;;;;;;;6.03;2.67;;;7.60;99.90;;;;;;5113767;28;20019;-73
2022/11/21 09:34:51;;;;;;;5.25;2.47;;;7.70;99.90;;;;;;5113654;28;20047;-72
2022/11/21 09:37:17;;;;;;;6.78;2.17;;;7.80;99.90;;;;;;5113411;28;20027;-72
2022/11/21 09:39:42;;;;;;;5.45;1.60;;;7.90;99.90;;;;;;5114129;28;20361;-72
2022/11/21 09:42:39;;;;;;;6.97;1.85;;;8.00;99.90;;;;;;5113666;28;20024;-72
2022/11/21 09:45:18;;;;;;;5.57;2.60;;;8.10;99.90;;;;;;5113253;28;20471;-72
2022/11/21 09:47:48;;;;;;;4.32;2.03;;;8.20;99.90;;;;;;5112078;28;20468;-72
2022/11/21 09:50:13;;;;;;;7.60;3.10;;;8.40;99.90;;;;;;5113809;28;20035;-73
2022/11/21 09:52:51;;;;;;;7.05;2.53;;;8.50;99.90;;;;;;5113614;28;20019;-71
2022/11/21 09:55:28;;;;;;;8.70;3.58;;;8.60;99.90;;;;;;5113300;28;20024;-72
2022/11/21 09:57:54;;;;;;;11.00;3.55;;;8.80;99.90;;;;;;5113987;28;20076;-72
2022/11/21 10:00:23;;;;;;;9.68;2.70;;;9.00;99.90;;;;;;5113040;28;20106;-72
2022/11/21 10:02:50;;;;;;;4.85;1.90;;;9.20;99.90;;;;;;5113749;28;20110;-72
2022/11/21 10:05:20;;;;;;;7.22;2.13;;;9.30;96.80;;;;;;5113445;28;20046;-72
2022/11/21 10:07:47;;;;;;;4.68;1.35;;;9.50;94.40;;;;;;5113297;28;20046;-73
2022/11/21 10:10:27;;;;;;;2.83;1.02;;;9.60;92.40;;;;;;5113141;28;20065;-73
2022/11/21 10:13:18;;;;;;;2.17;0.90;;;9.80;91.30;;;;;;5113654;28;20020;-73
2022/11/21 10:16:02;;;;;;;2.57;1.07;;;10.00;88.90;;;;;;5113831;28;20468;-73
2022/11/21 10:18:38;;;;;;;3.75;1.20;;;10.20;88.00;;;;;;5113082;28;20035;-73
2022/11/21 10:21:27;;;;;;;2.05;1.23;;;10.30;85.80;;;;;;5113336;28;20114;-80
2022/11/21 10:24:12;;;;;;;3.05;1.10;;;10.30;83.80;;;;;;5107716;28;20070;-73
2022/11/21 10:26:58;;;;;;;4.88;1.33;;;10.40;83.10;;;;;;5113445;28;20054;-73
2022/11/21 10:29:33;;;;;;;2.65;1.10;;;10.50;83.00;;;;;;5112425;28;20032;-72
2022/11/21 10:32:07;;;;;;;2.92;1.38;;;10.60;83.60;;;;;;5113294;27;20467;-72
2022/11/21 10:34:36;;;;;;;5.47;1.45;;;10.60;80.40;;;;;;5113015;28;20043;-72
2022/11/21 10:37:35;;;;;;;5.45;1.27;;;10.60;79.80;;;;;;5112630;28;20028;-72
2022/11/21 10:40:38;;;;;;;4.57;1.52;;;10.60;79.20;;;;;;5105017;28;20487;-72
2022/11/21 10:46:07;;;;;;;3.47;1.10;;;10.50;78.40;;;;;;5091829;28;20517;-76
2022/11/21 10:48:32;;;;;;;2.78;0.80;;;10.40;78.20;;;;;;5092770;28;20057;-72
2022/11/21 10:51:24;;;;;;;1.83;0.80;;;10.30;77.10;;;;;;5092561;28;20099;-73
2022/11/21 10:56:46;;;;;;;5.75;1.00;;;10.00;78.00;;;;;;5092565;28;19981;-72
2022/11/21 10:59:22;;;;;;;1.75;1.00;;;9.80;78.40;;;;;;5092027;28;20535;-72
2022/11/21 11:02:14;;;;;;;1.80;0.90;;;9.80;79.50;;;;;;5092742;28;20028;-72
2022/11/21 11:04:40;;;;;;;3.53;1.10;;;9.60;80.30;;;;;;5089843;28;20040;-72
2022/11/21 11:07:25;;;;;;;5.07;1.50;;;9.50;80.60;;;;;;5098615;28;20028;-73
2022/11/21 11:09:52;;;;;;;4.20;1.60;;;9.50;81.60;;;;;;5098967;28;20039;-72
2022/11/21 11:15:24;;;;;;;3.80;0.80;;;9.40;82.30;;;;;;5098594;28;20074;-72
2022/11/21 11:18:00;;;;;;;4.05;1.27;;;9.30;82.70;;;;;;5098950;28;20032;-72
2022/11/21 11:20:35;;;;;;;4.05;1.00;;;9.30;83.30;;;;;;5098406;28;20115;-71
2022/11/21 11:23:24;;;;;;;4.00;1.05;;;9.30;82.90;;;;;;5099039;28;20024;-72
2022/11/21 11:25:57;;;;;;;1.38;0.70;;;9.30;83.50;;;;;;5098673;28;20024;-72
2022/11/21 11:28:25;;;;;;;1.95;0.95;;;9.30;83.30;;;;;;5098488;28;20351;-72
2022/11/21 11:30:53;;;;;;;2.80;0.80;;;9.20;83.80;;;;;;5098696;28;20484;-72
2022/11/21 11:33:48;;;;;;;4.15;0.73;;;9.20;84.80;;;;;;5098479;28;20028;-72
2022/11/21 11:36:35;;;;;;;1.38;0.80;;;9.00;86.00;;;;;;5098380;28;20052;-72
2022/11/21 11:39:16;;;;;;;1.60;0.90;;;8.90;88.20;;;;;;5098960;28;20072;-72
2022/11/21 11:48:09;;;;;;;1.83;0.82;;;8.60;91.70;;;;;;5098410;28;20068;-72
2022/11/21 11:50:39;;;;;;;1.77;0.88;;;8.50;91.80;;;;;;5116926;28;20084;-73
2022/11/21 11:53:10;;;;;;;2.80;1.00;;;8.50;91.90;;;;;;5098425;28;20468;-72
2022/11/21 11:55:56;;;;;;;3.28;1.02;;;8.50;92.30;;;;;;5098191;28;20111;-72
2022/11/21 11:58:41;;;;;;;2.65;1.08;;;8.50;92.30;;;;;;5098004;28;20032;-72
2022/11/21 12:01:15;;;;;;;3.08;1.13;;;8.50;91.90;;;;;;5098628;28;20024;-73
2022/11/21 12:04:09;;;;;;;3.03;1.15;;;8.50;92.20;;;;;;5098819;28;20477;-71
2022/11/21 12:07:10;;;;;;;1.77;1.05;;;8.50;92.20;;;;;;5093632;28;20050;-72
2022/11/21 12:09:44;;;;;;;2.67;0.80;;;8.50;91.90;;;;;;5098447;28;20020;-72
2022/11/21 12:12:32;;;;;;;1.48;0.80;;;8.50;91.50;;;;;;5098584;28;20461;-72
2022/11/21 12:18:19;;;;;;;1.60;1.10;;;8.50;91.50;;;;;;5094875;28;20388;-73
2022/11/21 12:20:44;;;;;;;4.22;1.50;;;8.50;91.50;;;;;;5095280;28;20052;-72
2022/11/21 12:23:12;;;;;;;1.83;1.10;;;8.50;91.60;;;;;;5094952;28;20077;-71
2022/11/21 12:25:55;;;;;;;4.00;0.80;;;8.50;91.70;;;;;;5094668;28;20052;-71
2022/11/21 12:28:38;;;;;;;1.77;0.88;;;8.50;91.50;;;;;;5094504;28;20178;-71
2022/11/21 12:31:24;;;;;;;3.97;1.40;;;8.50;91.40;;;;;;5094857;28;20032;-72
2022/11/21 12:34:20;;;;;;;3.17;1.23;;;8.50;91.40;;;;;;5094763;28;20029;-72
2022/11/21 12:37:07;;;;;;;2.55;1.25;;;8.50;91.30;;;;;;5094984;28;20513;-72
2022/11/21 12:39:59;;;;;;;2.15;1.02;;;8.50;91.50;;;;;;5094649;28;20035;-72
2022/11/21 12:42:49;;;;;;;3.47;1.15;;;8.40;91.80;;;;;;5094379;28;20035;-71
2022/11/21 12:45:37;;;;;;;4.10;0.80;;;8.40;92.00;;;;;;5094619;28;20127;-73
2022/11/21 12:54:57;;;;;;;1.88;0.75;;;8.50;92.10;;;;;;5114062;28;20577;-71
2022/11/21 12:57:49;;;;;;;1.65;0.63;;;8.40;92.20;;;;;;5111062;28;20134;-72
2022/11/21 13:00:59;;;;;;;2.92;0.85;;;8.30;91.90;;;;;;5111589;28;20114;-72
2022/11/21 13:03:51;;;;;;;1.88;1.30;;;8.30;91.70;;;;;;5051581;28;20060;-72
2022/11/21 13:06:22;;;;;;;4.50;1.10;;;8.30;91.60;;;;;;5114299;28;20030;-71
2022/11/21 13:08:50;;;;;;;1.30;0.70;;;8.40;91.40;;;;;;5114755;28;20110;-72
2022/11/21 13:14:15;;;;;;;4.32;0.95;;;8.30;91.70;;;;;;5114461;28;20074;-71
2022/11/21 13:16:45;;;;;;;1.85;0.85;;;8.30;91.70;;;;;;5114068;28;20043;-72
2022/11/21 13:19:25;;;;;;;1.60;0.65;;;8.30;91.70;;;;;;5114583;28;20112;-72
2022/11/21 13:21:55;;;;;;;1.67;0.60;;;8.30;91.70;;;;;;5114269;28;20027;-71
2022/11/21 13:24:48;;;;;;;3.00;0.82;;;8.30;91.80;;;;;;5112734;28;20027;-71
2022/11/21 13:27:34;;;;;;;2.85;0.88;;;8.20;91.90;;;;;;5113773;28;20036;-72
2022/11/21 13:30:05;;;;;;;2.20;0.80;;;8.20;92.10;;;;;;5114379;28;20483;-73
2022/11/21 13:32:48;;;;;;;4.13;1.40;;;8.20;92.40;;;;;;5112461;28;20034;-71
2022/11/21 13:35:13;;;;;;;3.55;0.88;;;8.20;92.70;;;;;;5114572;28;20079;-71
2022/11/21 13:37:48;;;;;;;2.28;1.00;;;8.20;92.90;;;;;;5113395;28;20063;-72
2022/11/21 13:40:26;;;;;;;1.80;1.10;;;8.20;92.70;;;;;;5113901;28;20032;-71
2022/11/21 13:43:18;;;;;;;2.25;1.00;;;8.20;92.70;;;;;;5114034;28;20065;-71
2022/11/21 13:45:52;;;;;;;2.65;1.45;;;8.20;92.50;;;;;;5114217;28;20375;-72
2022/11/21 13:48:30;;;;;;;1.45;0.80;;;8.20;92.40;;;;;;5113803;28;20452;-71